PDT,Max TemperatureF,Mean TemperatureF,Min TemperatureF,Max Dew PointF,MeanDew PointF,Min DewpointF,Max Humidity, Mean Humidity, Min Humidity, Max Sea Level PressureIn, Mean Sea Level PressureIn, Min Sea Level PressureIn, Max VisibilityMiles, Mean VisibilityMiles, Min VisibilityMiles, Max Wind SpeedMPH, Mean Wind SpeedMPH, Max Gust SpeedMPH,PrecipitationIn, CloudCover, Events, WindDirDegrees
2013-9-1,74,66,58,61,57,54,87,70,53,29.99,29.97,29.92,10,10,10,14,5,16,0.00,3,,250
2013-9-2,73,67,61,61,60,57,90,78,66,30.00,29.97,29.92,10,10,10,14,6,20,0.00,3,,235
2013-9-3,74,67,59,61,57,51,90,68,46,30.05,30.01,29.96,10,10,10,14,6,32,0.00,1,,255
2013-9-4,71,65,59,58,56,54,90,76,61,30.09,30.05,29.99,10,10,10,15,6,22,0.00,0,,241
2013-9-5,70,65,59,58,56,54,90,76,61,30.08,30.05,30.01,10,10,10,16,6,22,0.00,1,,228
2013-9-6,76,64,52,55,52,48,93,67,41,30.05,29.96,29.88,10,10,7,12,4,14,0.00,1,,270
2013-9-7,82,68,54,57,54,47,93,66,39,29.94,29.91,29.88,10,10,10,15,4,18,0.00,2,,241
2013-9-8,69,63,56,58,56,54,93,83,73,29.94,29.89,29.82,10,6,0,10,3,16,0.00,6,Fog,315
2013-9-9,71,63,55,58,56,54,100,82,63,29.86,29.83,29.77,10,7,0,9,2,13,0.00,6,Fog,325
2013-9-10,73,65,56,56,55,54,100,79,57,29.97,29.88,29.79,10,10,5,16,5,21,0.00,5,,178
2013-9-11,70,65,60,57,56,54,84,73,61,30.06,30.02,29.95,10,10,10,13,5,20,0.00,6,,233
2013-9-12,68,63,58,59,57,56,97,85,73,30.03,29.99,29.93,10,10,5,14,5,21,0.00,6,,264
2013-9-13,66,62,57,58,56,55,100,87,73,29.96,29.91,29.86,10,5,0,14,7,18,0.01,7,Fog,262
2013-9-14,67,62,57,56,55,53,93,83,73,29.89,29.84,29.80,10,8,0,16,8,20,0.00,6,Fog,238
2013-9-15,72,64,56,59,55,53,93,75,57,29.92,29.88,29.82,10,10,7,13,5,17,0.00,3,,230
2013-9-16,71,63,54,57,55,51,100,80,59,29.96,29.91,29.87,10,7,0,16,6,21,0.00,3,Fog,258
2013-9-17,69,63,56,57,55,52,84,72,59,29.98,29.95,29.91,10,10,10,21,9,31,0.00,3,,236
2013-9-18,68,59,50,54,51,46,89,72,55,29.97,29.92,29.87,10,9,2,14,4,17,0.00,1,,284
2013-9-19,72,60,48,53,50,45,93,69,44,29.91,29.87,29.83,10,10,9,13,4,15,0.00,0,,277
2013-9-20,75,65,54,59,56,49,87,72,57,29.95,29.89,29.84,10,9,1,15,6,20,0.00,4,,211
2013-9-21,73,66,59,59,56,54,97,75,53,29.97,29.91,29.86,10,9,4,21,6,29,0.02,5,,212
2013-9-22,67,60,52,55,53,51,93,76,58,30.06,30.00,29.94,10,10,10,12,3,21,0.00,1,,261
2013-9-23,71,62,52,58,53,47,80,67,53,30.05,30.02,29.98,10,10,10,12,5,16,0.00,0,,264
2013-9-24,69,63,57,55,54,52,86,72,57,30.06,30.02,30.00,10,10,10,18,8,29,0.00,0,,251
2013-9-25,66,61,56,53,50,47,86,69,52,30.02,29.96,29.88,10,10,10,24,9,33,0.00,1,,254
2013-9-26,68,59,49,50,46,37,83,63,42,30.03,29.95,29.86,10,10,10,15,5,18,0.00,1,,224
2013-9-27,72,60,47,48,40,34,65,47,29,30.14,30.09,30.03,10,10,8,12,4,15,0.00,0,,345
2013-9-28,72,61,50,54,43,34,80,57,33,30.14,30.10,30.07,10,10,10,14,4,17,0.00,0,,255
2013-9-29,71,61,50,58,52,39,86,70,53,30.16,30.13,30.11,10,10,10,13,4,16,0.00,0,,211
2013-9-30,72,64,56,61,57,53,93,77,61,30.13,30.07,30.00,10,9,2,13,4,17,0.00,2,,272